ADDS TAF Data INFO
IDs: Format: Raw Decoded Include METARs

Data at: 2043 UTC 15 Aug 2018

KDMN 151953Z AUTO 20006G15KT 10SM CLR 34/12 A3005 RMK AO2 SLP089 T03390122

KDMN 151736Z 1518/1618 15008KT P6SM SCT080 BKN200
  FM160300 25008KT P6SM FEW100 BKN150 OVC220